createdAt,value
2023-04-04T00:00:19.017Z,91.20
2023-04-04T00:02:45.732Z,91.40
2023-04-04T00:05:11.905Z,91.50
2023-04-04T00:07:38.038Z,91.20
2023-04-04T00:10:05.148Z,90.70
2023-04-04T00:12:31.541Z,91.30
2023-04-04T00:14:58.595Z,90.30
2023-04-04T00:17:25.379Z,90.20
2023-04-04T00:19:52.964Z,90.30
2023-04-04T00:22:19.167Z,90.10
2023-04-04T00:24:45.334Z,90.00
2023-04-04T00:27:11.502Z,90.00
2023-04-04T00:29:37.863Z,89.80
2023-04-04T00:32:04.157Z,90.70
2023-04-04T00:34:30.638Z,90.30
2023-04-04T00:36:57.264Z,90.60
2023-04-04T00:39:23.591Z,89.50
2023-04-04T00:41:49.799Z,89.20
2023-04-04T00:44:16.842Z,88.80
2023-04-04T00:46:43.196Z,88.40
2023-04-04T00:49:09.453Z,89.00
2023-04-04T00:51:36.675Z,89.20
2023-04-04T00:54:02.882Z,90.20
2023-04-04T00:56:30.190Z,89.00
2023-04-04T00:58:56.581Z,89.40
2023-04-04T01:01:25.704Z,88.80
2023-04-04T01:03:52.160Z,89.50
2023-04-04T01:06:18.862Z,89.70
2023-04-04T01:08:45.065Z,89.20
2023-04-04T01:11:11.263Z,89.70
2023-04-04T01:13:37.521Z,90.20
2023-04-04T01:16:04.719Z,89.70
2023-04-04T01:18:31.163Z,89.60
2023-04-04T01:21:01.576Z,90.20
2023-04-04T01:24:02.583Z,90.20
2023-04-04T01:26:28.760Z,90.70
2023-04-04T01:28:56.117Z,90.60
2023-04-04T01:31:40.039Z,90.30
2023-04-04T01:34:31.295Z,89.50
2023-04-04T01:37:12.522Z,89.50
2023-04-04T01:39:51.944Z,88.90
2023-04-04T01:42:20.196Z,88.70
2023-04-04T01:44:46.626Z,88.60
2023-04-04T01:47:13.061Z,87.00
2023-04-04T01:49:39.662Z,86.30
2023-04-04T01:52:06.841Z,87.20
2023-04-04T01:54:35.192Z,84.10
2023-04-04T01:57:01.806Z,84.20
2023-04-04T01:59:28.071Z,83.50
2023-04-04T02:01:54.445Z,83.00
2023-04-04T02:04:20.689Z,82.60
2023-04-04T02:06:47.156Z,81.20
2023-04-04T02:09:13.717Z,81.50
2023-04-04T02:11:39.857Z,81.80
2023-04-04T02:14:06.065Z,81.90
2023-04-04T02:16:33.251Z,81.30
2023-04-04T02:18:59.378Z,83.40
2023-04-04T02:21:26.581Z,81.40
2023-04-04T02:23:53.169Z,80.90
2023-04-04T02:26:20.676Z,80.60
2023-04-04T02:28:47.112Z,80.40
2023-04-04T02:31:14.197Z,81.80
2023-04-04T02:33:41.095Z,82.80
2023-04-04T02:36:07.665Z,83.90
2023-04-04T02:38:34.254Z,85.40
2023-04-04T02:41:00.378Z,86.30
2023-04-04T02:43:26.503Z,87.40
2023-04-04T02:45:52.676Z,88.40
2023-04-04T02:48:19.104Z,87.80
2023-04-04T02:50:46.917Z,88.90
2023-04-04T02:53:13.243Z,88.80
2023-04-04T02:55:39.379Z,89.10
2023-04-04T02:58:05.540Z,89.70
2023-04-04T03:00:31.710Z,90.20
2023-04-04T03:02:58.033Z,90.60
2023-04-04T03:05:24.836Z,90.90
2023-04-04T03:07:57.863Z,91.10
2023-04-04T03:10:25.153Z,91.50
2023-04-04T03:12:51.309Z,91.70
2023-04-04T03:15:17.905Z,92.30
2023-04-04T03:17:44.509Z,92.70
2023-04-04T03:20:12.109Z,93.30
2023-04-04T03:22:38.649Z,93.80
2023-04-04T03:25:06.009Z,94.20
2023-04-04T03:27:32.474Z,94.50
2023-04-04T03:29:58.794Z,95.00
2023-04-04T03:32:25.667Z,95.30
2023-04-04T03:34:52.079Z,95.20
2023-04-04T03:37:18.765Z,95.20
2023-04-04T03:39:47.040Z,95.40
2023-04-04T03:42:13.185Z,95.60
2023-04-04T03:44:42.681Z,95.70
2023-04-04T03:47:08.861Z,95.70
2023-04-04T03:49:34.997Z,95.60
2023-04-04T03:52:02.742Z,95.80
2023-04-04T03:54:28.914Z,95.40
2023-04-04T03:56:56.168Z,95.50
2023-04-04T03:59:23.100Z,95.50
2023-04-04T04:01:49.316Z,95.50
2023-04-04T04:04:15.500Z,95.60
2023-04-04T04:06:41.840Z,95.80
2023-04-04T04:09:08.925Z,95.80
2023-04-04T04:11:35.634Z,95.90
2023-04-04T04:14:03.038Z,95.90
2023-04-04T04:16:29.604Z,96.00
2023-04-04T04:18:56.193Z,96.30
2023-04-04T04:21:22.474Z,95.80
2023-04-04T04:23:48.891Z,95.70
2023-04-04T04:26:15.072Z,95.90
2023-04-04T04:28:41.597Z,95.60
2023-04-04T04:31:08.537Z,95.50
2023-04-04T04:33:34.933Z,95.70
2023-04-04T04:36:02.415Z,95.50
2023-04-04T04:38:29.596Z,95.40
2023-04-04T04:40:56.200Z,95.30
2023-04-04T04:43:22.963Z,95.30
2023-04-04T04:45:50.069Z,94.90
2023-04-04T04:48:17.831Z,94.60
2023-04-04T04:50:47.204Z,94.50
2023-04-04T04:53:13.764Z,94.30
2023-04-04T04:55:42.424Z,94.30
2023-04-04T04:58:10.147Z,93.40
2023-04-04T05:00:37.398Z,92.90
2023-04-04T05:03:06.599Z,92.10
2023-04-04T05:05:34.773Z,92.40
2023-04-04T05:08:02.171Z,92.10
2023-04-04T05:10:30.141Z,92.10
2023-04-04T05:12:56.675Z,91.70
2023-04-04T05:15:22.811Z,91.40
2023-04-04T05:17:49.487Z,91.10
2023-04-04T05:20:15.756Z,91.00
2023-04-04T05:22:44.794Z,90.60
2023-04-04T05:25:11.741Z,90.90
2023-04-04T05:27:38.868Z,90.80
2023-04-04T05:30:07.038Z,90.50
2023-04-04T05:32:33.496Z,90.70
2023-04-04T05:35:00.269Z,90.60
2023-04-04T05:37:27.256Z,90.00
2023-04-04T05:39:54.650Z,90.50
2023-04-04T05:42:21.351Z,90.50
2023-04-04T05:44:47.513Z,90.60
2023-04-04T05:47:13.652Z,89.10
2023-04-04T05:49:39.977Z,88.50
2023-04-04T05:52:07.398Z,88.70
2023-04-04T05:54:33.725Z,87.70
2023-04-04T05:56:59.890Z,87.90
2023-04-04T05:59:26.487Z,87.60
2023-04-04T06:01:53.231Z,87.70
2023-04-04T06:04:19.362Z,89.20
2023-04-04T06:06:47.871Z,90.00
2023-04-04T06:09:14.071Z,90.20
2023-04-04T06:11:40.297Z,89.90
2023-04-04T06:14:07.590Z,88.40
2023-04-04T06:16:34.956Z,89.20
2023-04-04T06:19:01.138Z,88.20
2023-04-04T06:21:27.560Z,86.10
2023-04-04T06:23:53.756Z,87.00
2023-04-04T06:26:20.005Z,85.80
2023-04-04T06:28:50.214Z,85.00
2023-04-04T06:31:17.930Z,83.70
2023-04-04T06:33:44.368Z,81.60
2023-04-04T06:36:11.375Z,80.60
2023-04-04T06:38:38.604Z,81.80
2023-04-04T06:41:04.818Z,80.70
2023-04-04T06:43:31.182Z,80.60
2023-04-04T06:45:57.551Z,78.00
2023-04-04T06:48:23.762Z,79.10
2023-04-04T06:50:50.576Z,78.20
2023-04-04T06:53:16.860Z,77.00
2023-04-04T06:55:44.044Z,78.00
2023-04-04T06:58:10.534Z,80.00
2023-04-04T07:00:37.006Z,77.70
2023-04-04T07:03:03.784Z,77.20
2023-04-04T07:05:31.876Z,75.80
2023-04-04T07:07:58.256Z,75.90
2023-04-04T07:10:24.863Z,73.50
2023-04-04T07:12:51.753Z,74.40
2023-04-04T07:15:17.982Z,72.30
2023-04-04T07:17:45.290Z,73.10
2023-04-04T07:20:12.410Z,75.20
2023-04-04T07:22:39.273Z,74.60
2023-04-04T07:25:07.247Z,73.60
2023-04-04T07:27:33.446Z,72.70
2023-04-04T07:29:59.718Z,72.70
2023-04-04T07:32:26.080Z,73.70
2023-04-04T07:34:53.004Z,76.90
2023-04-04T07:37:19.233Z,73.50
2023-04-04T07:39:46.536Z,71.80
2023-04-04T07:42:12.908Z,73.40
2023-04-04T07:44:39.477Z,73.20
2023-04-04T07:47:09.962Z,74.80
2023-04-04T07:49:36.925Z,72.20
2023-04-04T07:52:04.171Z,71.60
2023-04-04T07:54:30.626Z,71.50
2023-04-04T07:56:57.445Z,71.70
2023-04-04T07:59:24.587Z,70.60
2023-04-04T08:01:52.635Z,70.70
2023-04-04T08:04:19.101Z,69.00
2023-04-04T08:06:45.417Z,68.80
2023-04-04T08:09:11.611Z,68.20
2023-04-04T08:11:38.392Z,66.90
2023-04-04T08:14:05.423Z,67.40
2023-04-04T08:16:31.798Z,68.00
2023-04-04T08:19:00.163Z,66.10
2023-04-04T08:21:26.879Z,62.60
2023-04-04T08:23:53.839Z,65.30
2023-04-04T08:26:21.599Z,62.50
2023-04-04T08:28:48.429Z,65.50
2023-04-04T08:31:15.053Z,65.10
2023-04-04T08:36:11.884Z,66.60
2023-04-04T08:38:38.494Z,66.30
2023-04-04T08:41:04.885Z,65.20
2023-04-04T08:43:34.006Z,65.10
2023-04-04T08:46:01.340Z,65.30
2023-04-04T08:48:30.373Z,65.40
2023-04-04T08:50:59.973Z,65.10
2023-04-04T08:53:26.465Z,66.70
2023-04-04T08:55:53.816Z,63.80
2023-04-04T08:58:20.870Z,64.30
2023-04-04T09:00:47.438Z,63.60
2023-04-04T09:03:26.002Z,62.90
2023-04-04T09:05:54.070Z,63.60
2023-04-04T09:08:23.089Z,64.10
2023-04-04T09:10:49.288Z,62.60
2023-04-04T09:13:17.037Z,62.40
2023-04-04T09:15:46.856Z,61.70
2023-04-04T09:18:14.253Z,62.00
2023-04-04T09:20:48.808Z,61.10
2023-04-04T09:23:17.072Z,62.70
2023-04-04T09:28:20.482Z,60.20
2023-04-04T09:30:50.613Z,58.20
2023-04-04T09:33:17.637Z,58.30
2023-04-04T09:35:46.230Z,58.20
2023-04-04T09:38:13.786Z,58.50
2023-04-04T09:40:41.498Z,59.70
2023-04-04T09:43:08.790Z,61.40
2023-04-04T09:45:36.505Z,62.50
2023-04-04T09:48:02.936Z,62.50
2023-04-04T09:50:29.726Z,61.50
2023-04-04T09:52:57.831Z,61.80
2023-04-04T09:55:34.450Z,60.90
2023-04-04T09:58:12.331Z,59.40
2023-04-04T10:00:42.186Z,57.80
2023-04-04T10:03:10.360Z,58.60
2023-04-04T10:05:36.550Z,59.00
2023-04-04T10:08:16.707Z,58.60
2023-04-04T10:13:42.033Z,55.80
2023-04-04T10:16:09.580Z,54.80
2023-04-04T10:18:36.425Z,56.80
2023-04-04T10:23:38.130Z,58.70
2023-04-04T10:26:05.064Z,60.10
2023-04-04T10:28:33.199Z,58.80
2023-04-04T10:31:22.111Z,59.30
2023-04-04T10:35:22.371Z,60.90
2023-04-04T10:38:07.764Z,63.50
2023-04-04T10:40:39.671Z,60.90
2023-04-04T10:43:06.753Z,60.10
2023-04-04T10:45:34.884Z,58.80
2023-04-04T10:48:02.595Z,59.40
2023-04-04T10:50:31.697Z,57.10
2023-04-04T10:53:00.490Z,59.10
2023-04-04T10:55:27.023Z,55.80
2023-04-04T10:57:55.575Z,54.30
2023-04-04T11:00:26.636Z,56.80
2023-04-04T11:03:00.126Z,56.90
2023-04-04T11:05:41.465Z,58.40
2023-04-04T11:08:13.483Z,58.50
2023-04-04T11:10:43.985Z,58.20
2023-04-04T11:13:25.291Z,58.90
2023-04-04T11:16:04.684Z,59.00
2023-04-04T11:19:32.773Z,60.20
2023-04-04T11:21:59.576Z,62.00
2023-04-04T11:24:27.721Z,58.70
2023-04-04T11:26:54.446Z,60.00
2023-04-04T11:29:23.369Z,60.80
2023-04-04T11:31:50.935Z,60.10
2023-04-04T11:34:30.950Z,60.20
2023-04-04T11:36:57.493Z,61.50
2023-04-04T11:39:30.462Z,62.10
2023-04-04T11:42:13.250Z,61.60
2023-04-04T11:45:25.338Z,61.40
2023-04-04T11:47:53.341Z,61.60
2023-04-04T11:50:21.108Z,63.40
2023-04-04T11:52:47.324Z,62.80
2023-04-04T11:55:15.176Z,59.30
2023-04-04T11:57:42.712Z,60.20
2023-04-04T12:00:11.598Z,59.30
2023-04-04T12:02:38.851Z,57.30
2023-04-04T12:05:06.183Z,58.40
2023-04-04T12:07:33.503Z,60.60
2023-04-04T12:10:00.758Z,60.80
2023-04-04T12:12:29.563Z,61.20
2023-04-04T12:15:03.458Z,61.60
2023-04-04T12:17:41.570Z,60.60
2023-04-04T12:20:10.599Z,62.10
2023-04-04T12:22:38.262Z,61.40
2023-04-04T12:25:06.024Z,60.90
2023-04-04T12:27:32.347Z,57.50
2023-04-04T12:30:00.987Z,58.00
2023-04-04T12:32:27.522Z,59.00
2023-04-04T12:35:00.022Z,59.40
2023-04-04T12:37:28.828Z,60.60
2023-04-04T12:39:55.812Z,61.60
2023-04-04T12:42:25.175Z,61.90
2023-04-04T12:44:52.257Z,63.40
2023-04-04T12:47:20.601Z,63.30
2023-04-04T12:49:50.627Z,63.70
2023-04-04T12:52:20.954Z,64.60
2023-04-04T12:54:50.797Z,61.40
2023-04-04T12:57:24.026Z,62.50
2023-04-04T12:59:51.059Z,60.70
2023-04-04T13:02:18.569Z,55.10
2023-04-04T13:04:45.880Z,56.60
2023-04-04T13:07:26.750Z,58.20
2023-04-04T13:10:04.833Z,59.30
2023-04-04T13:12:58.054Z,59.30
2023-04-04T13:15:47.762Z,59.30
2023-04-04T13:18:15.376Z,59.10
2023-04-04T13:20:41.527Z,54.60
2023-04-04T13:23:07.860Z,51.80
2023-04-04T13:25:34.188Z,54.00
2023-04-04T13:28:00.614Z,53.70
2023-04-04T13:30:27.451Z,53.40
2023-04-04T13:32:53.733Z,55.20
2023-04-04T13:35:20.061Z,54.30
2023-04-04T13:37:46.443Z,55.60
2023-04-04T13:40:12.661Z,57.00
2023-04-04T13:42:39.107Z,56.80
2023-04-04T13:45:06.177Z,56.40
2023-04-04T13:47:32.910Z,57.60
2023-04-04T13:50:00.235Z,58.00
2023-04-04T13:52:26.443Z,57.30
2023-04-04T13:54:52.775Z,58.90
2023-04-04T13:57:19.132Z,57.70
2023-04-04T13:59:45.456Z,57.50
2023-04-04T14:02:12.289Z,57.50
2023-04-04T14:04:38.562Z,58.40
2023-04-04T14:07:05.474Z,59.20
2023-04-04T14:09:31.728Z,58.90
2023-04-04T14:11:57.957Z,58.70
2023-04-04T14:14:24.145Z,59.30
2023-04-04T14:16:51.628Z,59.40
2023-04-04T14:19:18.096Z,57.30
2023-04-04T14:21:44.894Z,55.50
2023-04-04T14:24:11.729Z,57.40
2023-04-04T14:26:38.790Z,57.30
2023-04-04T14:29:05.031Z,58.20
2023-04-04T14:31:34.386Z,58.50
2023-04-04T14:34:01.803Z,59.40
2023-04-04T14:36:28.850Z,61.10
2023-04-04T14:38:55.139Z,59.90
2023-04-04T14:41:22.212Z,60.00
2023-04-04T14:43:49.104Z,60.70
2023-04-04T14:46:16.514Z,61.20
2023-04-04T14:48:42.683Z,60.80
2023-04-04T14:51:08.942Z,59.60
2023-04-04T14:53:36.771Z,60.80
2023-04-04T14:56:03.329Z,57.50
2023-04-04T14:58:30.782Z,57.70
2023-04-04T15:00:57.981Z,57.40
2023-04-04T15:03:26.523Z,58.40
2023-04-04T15:05:52.930Z,58.70
2023-04-04T15:08:19.692Z,59.30
2023-04-04T15:10:45.939Z,60.40
2023-04-04T15:13:13.164Z,58.70
2023-04-04T15:15:39.597Z,59.10
2023-04-04T15:18:07.640Z,59.20
2023-04-04T15:20:39.762Z,58.90
2023-04-04T15:23:06.836Z,59.20
2023-04-04T15:25:33.746Z,58.60
2023-04-04T15:28:01.433Z,59.00
2023-04-04T15:30:29.806Z,60.60
2023-04-04T15:32:59.904Z,57.10
2023-04-04T15:35:26.942Z,55.90
2023-04-04T15:37:54.607Z,57.70
2023-04-04T15:40:21.281Z,58.70
2023-04-04T15:42:48.217Z,59.80
2023-04-04T15:45:15.244Z,60.00
2023-04-04T15:47:42.053Z,63.70
2023-04-04T15:50:08.869Z,57.60
2023-04-04T15:52:35.818Z,57.60
2023-04-04T15:55:03.372Z,56.80
2023-04-04T15:57:29.839Z,58.70
2023-04-04T15:59:56.051Z,58.20
2023-04-04T16:02:23.357Z,58.00
2023-04-04T16:04:49.976Z,58.80
2023-04-04T16:07:16.589Z,59.20
2023-04-04T16:09:42.854Z,59.10
2023-04-04T16:12:09.261Z,60.50
2023-04-04T16:14:35.503Z,59.30
2023-04-04T16:17:02.830Z,60.50
2023-04-04T16:19:29.864Z,60.00
2023-04-04T16:21:56.207Z,61.10
2023-04-04T16:24:22.504Z,59.90
2023-04-04T16:26:49.643Z,60.70
2023-04-04T16:29:17.166Z,60.30
2023-04-04T16:31:43.360Z,60.10
2023-04-04T16:34:09.926Z,61.10
2023-04-04T16:36:36.709Z,61.10
2023-04-04T16:39:03.598Z,62.50
2023-04-04T16:41:29.952Z,61.40
2023-04-04T16:43:59.346Z,61.50
2023-04-04T16:46:26.682Z,61.80
2023-04-04T16:48:53.623Z,62.70
2023-04-04T16:51:20.279Z,61.40
2023-04-04T16:53:46.520Z,60.60
2023-04-04T16:56:13.911Z,61.70
2023-04-04T16:58:41.504Z,61.70
2023-04-04T17:01:08.184Z,62.20
2023-04-04T17:03:35.866Z,63.00
2023-04-04T17:06:02.731Z,65.10
2023-04-04T17:08:28.920Z,65.00
2023-04-04T17:10:55.242Z,66.00
2023-04-04T17:13:22.360Z,67.70
2023-04-04T17:15:50.352Z,71.80
2023-04-04T17:18:17.192Z,67.90
2023-04-04T17:20:43.761Z,69.40
2023-04-04T17:23:10.600Z,68.20
2023-04-04T17:25:37.346Z,68.60
2023-04-04T17:28:04.155Z,72.20
2023-04-04T17:30:30.675Z,71.40
2023-04-04T17:32:57.228Z,71.50
2023-04-04T17:35:26.271Z,72.10
2023-04-04T17:37:53.142Z,73.60
2023-04-04T17:40:19.386Z,74.10
2023-04-04T17:42:45.677Z,78.00
2023-04-04T17:45:13.063Z,77.60
2023-04-04T17:47:39.399Z,80.40
2023-04-04T17:50:07.129Z,80.40
2023-04-04T17:52:34.002Z,80.10
2023-04-04T17:55:01.025Z,78.70
2023-04-04T17:57:28.278Z,80.50
2023-04-04T17:59:55.824Z,79.80
2023-04-04T18:02:22.341Z,78.90
2023-04-04T18:04:50.797Z,79.50
2023-04-04T18:07:19.687Z,80.30
2023-04-04T18:09:46.461Z,80.20
2023-04-04T18:12:13.546Z,82.00
2023-04-04T18:14:40.398Z,81.80
2023-04-04T18:17:06.935Z,83.00
2023-04-04T18:19:35.302Z,83.00
2023-04-04T18:22:02.207Z,83.90
2023-04-04T18:24:29.184Z,85.20
2023-04-04T18:26:56.225Z,88.00
2023-04-04T18:29:25.171Z,88.80
2023-04-04T18:31:52.855Z,89.90
2023-04-04T18:34:20.896Z,91.00
2023-04-04T18:36:49.599Z,90.60
2023-04-04T18:39:18.102Z,91.30
2023-04-04T18:41:45.879Z,91.60
2023-04-04T18:44:12.117Z,90.30
2023-04-04T18:46:39.463Z,89.70
2023-04-04T18:49:06.717Z,87.20
2023-04-04T18:51:33.616Z,87.00
2023-04-04T18:54:00.392Z,87.60
2023-04-04T18:56:27.482Z,87.80
2023-04-04T18:58:53.680Z,86.50
2023-04-04T19:01:21.443Z,86.40
2023-04-04T19:03:47.742Z,88.20
2023-04-04T19:06:15.470Z,89.40
2023-04-04T19:08:43.706Z,90.60
2023-04-04T19:11:11.612Z,90.60
2023-04-04T19:13:37.858Z,89.80
2023-04-04T19:16:04.806Z,90.40
2023-04-04T19:18:32.814Z,90.60
2023-04-04T19:20:59.060Z,90.80
2023-04-04T19:23:28.576Z,90.80
2023-04-04T19:25:56.639Z,90.90
2023-04-04T19:28:23.736Z,91.00
2023-04-04T19:30:55.143Z,90.00
2023-04-04T19:33:23.074Z,89.60
2023-04-04T19:35:59.352Z,89.00
2023-04-04T19:38:36.798Z,91.20
2023-04-04T19:41:07.972Z,94.20
2023-04-04T19:43:38.725Z,94.70
2023-04-04T19:46:09.525Z,95.90
2023-04-04T19:48:51.897Z,97.10
2023-04-04T19:51:47.852Z,96.90
2023-04-04T19:54:16.080Z,97.90
2023-04-04T19:56:45.408Z,96.90
2023-04-04T20:00:03.523Z,96.40
2023-04-04T20:02:47.102Z,95.60
2023-04-04T20:08:48.736Z,95.50
2023-04-04T20:11:16.113Z,95.90
2023-04-04T20:13:43.189Z,96.60
2023-04-04T20:16:11.466Z,96.90
2023-04-04T20:18:38.385Z,96.80
2023-04-04T20:21:25.809Z,97.60
2023-04-04T20:23:57.085Z,97.70
2023-04-04T20:28:34.050Z,97.80
2023-04-04T20:31:10.917Z,96.90
2023-04-04T20:33:40.360Z,96.70
2023-04-04T20:36:11.845Z,96.60
2023-04-04T20:38:40.028Z,97.00
2023-04-04T20:41:17.934Z,96.80
2023-04-04T20:43:57.065Z,97.50
2023-04-04T20:46:25.139Z,97.80
2023-04-04T20:48:55.659Z,98.40
2023-04-04T20:51:30.963Z,98.30
2023-04-04T20:54:02.142Z,98.70
2023-04-04T20:56:45.892Z,99.10
2023-04-04T20:59:30.759Z,98.90
2023-04-04T21:02:08.263Z,99.90
2023-04-04T21:04:35.165Z,99.90
2023-04-04T21:07:02.225Z,99.90
2023-04-04T21:09:28.614Z,99.90
2023-04-04T21:11:55.552Z,99.90
2023-04-04T21:14:28.857Z,99.90
2023-04-04T21:16:55.055Z,99.10
2023-04-04T21:19:23.369Z,98.20
2023-04-04T21:21:50.574Z,97.90
2023-04-04T21:24:16.837Z,97.50
2023-04-04T21:26:43.746Z,97.00
2023-04-04T21:29:24.641Z,96.60
2023-04-04T21:31:52.160Z,96.10
2023-04-04T21:34:21.415Z,96.00
2023-04-04T21:36:48.741Z,95.90
2023-04-04T21:39:24.962Z,96.10
2023-04-04T21:41:52.856Z,95.70
2023-04-04T21:44:19.739Z,95.40
2023-04-04T21:46:46.069Z,95.20
2023-04-04T21:49:12.845Z,95.20
2023-04-04T21:51:39.060Z,95.20
2023-04-04T21:54:05.682Z,94.80
2023-04-04T21:56:32.294Z,94.60
2023-04-04T21:58:59.643Z,94.30
2023-04-04T22:01:27.007Z,94.10
2023-04-04T22:03:53.471Z,94.20
2023-04-04T22:06:21.617Z,93.90
2023-04-04T22:08:47.787Z,94.00
2023-04-04T22:11:19.683Z,94.10
2023-04-04T22:13:49.573Z,94.20
2023-04-04T22:16:16.768Z,94.30
2023-04-04T22:18:47.066Z,94.20
2023-04-04T22:21:14.830Z,94.40
2023-04-04T22:23:42.163Z,94.50
2023-04-04T22:26:10.775Z,94.80
2023-04-04T22:28:37.885Z,94.50
2023-04-04T22:31:05.437Z,94.50
2023-04-04T22:33:33.431Z,94.10
2023-04-04T22:36:04.625Z,94.60
2023-04-04T22:38:31.983Z,94.70
2023-04-04T22:40:59.302Z,94.30
2023-04-04T22:43:26.043Z,94.40
2023-04-04T22:45:52.834Z,94.70
2023-04-04T22:48:22.765Z,94.70
2023-04-04T22:50:50.451Z,94.50
2023-04-04T22:53:24.031Z,95.40
2023-04-04T22:55:53.152Z,94.60
2023-04-04T22:58:20.378Z,94.80
2023-04-04T23:00:47.686Z,94.60
2023-04-04T23:03:15.913Z,94.60
2023-04-04T23:05:42.647Z,94.70
2023-04-04T23:08:09.135Z,94.90
2023-04-04T23:10:36.125Z,94.90
2023-04-04T23:13:02.385Z,94.80
2023-04-04T23:15:28.535Z,94.00
2023-04-04T23:17:55.099Z,93.60
2023-04-04T23:20:21.308Z,93.60
2023-04-04T23:22:47.981Z,93.80
2023-04-04T23:25:14.101Z,93.80
2023-04-04T23:27:42.669Z,93.60
2023-04-04T23:30:09.911Z,93.20
2023-04-04T23:32:36.187Z,92.90
2023-04-04T23:35:02.425Z,93.10
2023-04-04T23:37:28.604Z,92.90
2023-04-04T23:39:54.818Z,92.70
2023-04-04T23:42:20.999Z,92.50
2023-04-04T23:44:47.816Z,92.50
2023-04-04T23:47:14.009Z,92.10
2023-04-04T23:49:41.505Z,92.20
2023-04-04T23:52:08.391Z,92.10
2023-04-04T23:54:35.509Z,92.30
2023-04-04T23:57:02.091Z,92.10
2023-04-04T23:59:28.495Z,92.00
